Time;durP1;ratioP1;P1;durP2;ratioP2;P2;SDS_P1;SDS_P2;PMS_P1;PMS_P2;Temp;Humidity;BMP_temperature;BMP_pressure;BME280_temperature;BME280_humidity;BME280_pressure;Samples;Min_cycle;Max_cycle;Signal;HPM_P1;HPM_P2
2023/02/08 00:00:57;;;;;;;14.93;13.43;;;;;;;-1.46;81.30;103237.50;5031456;28;20264;-74
2023/02/08 00:03:24;;;;;;;15.20;13.30;;;;;;;-1.49;81.15;103245.81;5031873;28;20209;-74
2023/02/08 00:05:51;;;;;;;14.83;12.70;;;;;;;-1.51;81.36;103238.81;5043898;28;20208;-74
2023/02/08 00:08:17;;;;;;;17.27;15.68;;;;;;;-1.46;81.95;103232.38;5043075;28;20954;-74
2023/02/08 00:10:44;;;;;;;16.47;14.60;;;;;;;-1.52;82.32;103234.47;5031529;28;20212;-74
2023/02/08 00:13:10;;;;;;;15.73;13.83;;;;;;;-1.52;81.72;103222.56;5031379;28;20206;-74
2023/02/08 00:15:41;;;;;;;15.97;13.23;;;;;;;-1.48;81.49;103224.56;5031767;28;20210;-74
2023/02/08 00:18:10;;;;;;;15.20;13.60;;;;;;;-1.55;82.00;103217.19;5031820;28;20614;-74
2023/02/08 00:20:37;;;;;;;14.27;12.83;;;;;;;-1.55;82.31;103208.63;5031466;28;20210;-74
2023/02/08 00:23:04;;;;;;;16.53;14.80;;;;;;;-1.52;81.40;103209.75;5031340;28;20241;-74
2023/02/08 00:25:30;;;;;;;14.03;12.53;;;;;;;-1.56;81.47;103215.41;5031559;28;20612;-74
2023/02/08 00:27:57;;;;;;;14.93;13.33;;;;;;;-1.59;82.24;103204.94;5031860;28;20252;-74
2023/02/08 00:30:24;;;;;;;14.63;13.13;;;;;;;-1.58;82.18;103199.03;5031318;28;20202;-74
2023/02/08 00:32:50;;;;;;;16.70;13.30;;;;;;;-1.54;81.67;103200.16;5031112;28;20790;-74
2023/02/08 00:35:18;;;;;;;15.43;12.57;;;;;;;-1.55;81.34;103208.63;5038558;28;20205;-74
2023/02/08 00:37:44;;;;;;;14.87;12.77;;;;;;;-1.53;81.31;103218.19;5051094;28;20259;-74
2023/02/08 00:40:11;;;;;;;21.40;14.53;;;;;;;-1.57;81.31;103218.75;5050304;28;20229;-74
2023/02/08 00:42:38;;;;;;;16.20;13.40;;;;;;;-1.62;81.28;103220.97;5051203;28;20671;-74
2023/02/08 00:45:05;;;;;;;13.97;12.47;;;;;;;-1.63;80.96;103229.41;5051172;28;20209;-74
2023/02/08 00:47:31;;;;;;;16.20;13.80;;;;;;;-1.65;81.00;103220.72;5050886;28;20221;-74
2023/02/08 00:49:58;;;;;;;15.20;13.60;;;;;;;-1.66;81.25;103224.06;5049684;28;20280;-74
2023/02/08 00:52:27;;;;;;;15.27;13.23;;;;;;;-1.55;80.73;103226.53;5032040;28;20240;-74
2023/02/08 00:54:54;;;;;;;17.33;13.47;;;;;;;-1.57;80.96;103230.66;5034918;28;20206;-74
2023/02/08 00:57:20;;;;;;;16.00;14.10;;;;;;;-1.65;80.76;103232.63;5035712;28;20213;-75
2023/02/08 00:59:46;;;;;;;15.60;13.37;;;;;;;-1.66;80.94;103231.75;5035170;28;20280;-74
2023/02/08 01:02:13;;;;;;;15.73;12.73;;;;;;;-1.74;80.94;103237.97;5034155;28;20618;-74
2023/02/08 01:04:39;;;;;;;15.53;13.93;;;;;;;-1.72;80.94;103241.53;5037650;28;20206;-74
2023/02/08 01:07:06;;;;;;;14.70;12.20;;;;;;;-1.65;80.33;103237.75;5043350;28;20275;-74
2023/02/08 01:09:34;;;;;;;14.63;13.20;;;;;;;-1.69;80.08;103261.34;5054811;28;20240;-75
2023/02/08 01:12:01;;;;;;;15.50;13.67;;;;;;;-1.67;80.05;103260.69;5054532;28;20258;-74
2023/02/08 01:14:27;;;;;;;16.60;13.10;;;;;;;-1.67;79.95;103268.38;5054494;28;20205;-74
2023/02/08 01:16:54;;;;;;;16.37;12.33;;;;;;;-1.71;79.83;103288.50;5054574;28;20206;-75
2023/02/08 01:19:20;;;;;;;16.07;12.43;;;;;;;-1.73;79.85;103295.19;5054762;28;20229;-74
2023/02/08 01:21:48;;;;;;;14.57;13.00;;;;;;;-1.83;80.19;103294.44;5054140;28;20209;-74
2023/02/08 01:24:14;;;;;;;16.53;12.70;;;;;;;-1.84;80.77;103281.56;5054473;28;20638;-74
2023/02/08 01:26:42;;;;;;;13.97;12.13;;;;;;;-1.81;80.72;103274.09;5054430;28;20202;-74
2023/02/08 01:29:09;;;;;;;14.50;12.57;;;;;;;-1.91;80.99;103275.06;5054188;28;20723;-74
2023/02/08 01:31:37;;;;;;;15.47;13.83;;;;;;;-1.85;81.31;103252.47;5054268;28;20209;-74
2023/02/08 01:34:05;;;;;;;15.00;13.40;;;;;;;-1.97;81.30;103253.22;5049922;28;20214;-74
2023/02/08 01:36:33;;;;;;;14.93;13.40;;;;;;;-2.06;81.38;103238.94;5044057;28;20214;-74
2023/02/08 01:39:00;;;;;;;13.90;12.50;;;;;;;-2.08;81.58;103220.00;5054391;28;20225;-74
2023/02/08 01:41:29;;;;;;;17.80;12.40;;;;;;;-2.17;81.99;103216.72;5053900;28;20214;-74
2023/02/08 01:44:07;;;;;;;16.30;13.50;;;;;;;-2.26;82.51;103195.53;5054267;28;20213;-74
2023/02/08 01:46:36;;;;;;;14.73;12.67;;;;;;;-2.29;82.49;103179.97;5053873;28;20263;-74
2023/02/08 01:49:06;;;;;;;14.87;13.33;;;;;;;-2.37;82.96;103168.25;5053920;28;20226;-74
2023/02/08 01:51:35;;;;;;;16.73;12.77;;;;;;;-2.37;83.62;103158.00;5053459;28;20235;-74
2023/02/08 01:54:04;;;;;;;16.27;12.93;;;;;;;-2.34;83.73;103145.44;5053913;28;20251;-74
2023/02/08 01:56:35;;;;;;;14.53;13.03;;;;;;;-2.26;83.26;103131.56;5054007;28;20613;-74
2023/02/08 01:59:06;;;;;;;13.83;11.77;;;;;;;-2.25;83.06;103141.94;5053870;28;20279;-74
2023/02/08 02:01:33;;;;;;;15.77;12.67;;;;;;;-2.10;82.91;103137.13;5053287;28;20213;-74
2023/02/08 02:04:01;;;;;;;14.10;12.57;;;;;;;-2.08;82.63;103142.31;5050388;28;20215;-74
2023/02/08 02:06:31;;;;;;;13.47;11.77;;;;;;;-2.05;82.03;103146.00;5050347;28;20209;-74
2023/02/08 02:09:07;;;;;;;14.50;12.43;;;;;;;-2.09;81.66;103156.78;5033246;28;20230;-74
2023/02/08 02:11:33;;;;;;;14.60;13.03;;;;;;;-2.14;81.69;103170.91;5033667;28;20280;-73
2023/02/08 02:14:01;;;;;;;16.30;12.33;;;;;;;-2.13;81.43;103170.13;5033232;28;20578;-75
2023/02/08 02:16:29;;;;;;;15.60;11.70;;;;;;;-2.11;81.09;103188.16;5033585;28;20742;-75
2023/02/08 02:18:55;;;;;;;15.90;13.20;;;;;;;-2.02;81.08;103191.44;5033279;28;20226;-75
2023/02/08 02:21:33;;;;;;;12.97;11.67;;;;;;;-1.95;80.62;103203.91;5033378;28;20218;-75
2023/02/08 02:24:25;;;;;;;12.70;10.80;;;;;;;-1.90;79.57;103229.84;5033650;28;20252;-74
2023/02/08 02:27:27;;;;;;;12.57;11.27;;;;;;;-1.86;78.81;103250.72;5005103;28;20260;-75
2023/02/08 02:30:38;;;;;;;14.27;11.30;;;;;;;-1.86;77.56;103294.22;5008337;28;20233;-75
2023/02/08 02:33:35;;;;;;;12.30;10.23;;;;;;;-1.88;77.65;103313.69;5032076;28;20210;-74
2023/02/08 02:36:09;;;;;;;12.03;10.73;;;;;;;-1.85;77.38;103333.53;5034981;28;20209;-75
2023/02/08 02:38:48;;;;;;;12.13;10.87;;;;;;;-1.86;77.17;103348.00;5053059;28;20785;-75
2023/02/08 02:44:09;;;;;;;17.50;14.17;;;;;;;-2.30;76.28;103410.94;5051769;28;20201;-75
2023/02/08 02:46:40;;;;;;;19.77;14.60;;;;;;;-2.29;77.55;103389.72;5053186;28;20266;-75
2023/02/08 02:49:15;;;;;;;16.97;14.60;;;;;;;-2.18;78.24;103367.56;5052454;28;20283;-75
2023/02/08 02:51:49;;;;;;;18.43;15.20;;;;;;;-2.11;79.00;103339.16;5052691;28;20201;-75
2023/02/08 02:54:19;;;;;;;17.20;14.43;;;;;;;-2.13;79.21;103310.88;5046334;28;20660;-74
2023/02/08 02:56:49;;;;;;;16.23;14.50;;;;;;;-2.09;79.68;103296.66;5023435;28;20194;-74
2023/02/08 02:59:16;;;;;;;19.83;15.57;;;;;;;-2.03;79.58;103282.66;5023335;28;20255;-74
2023/02/08 03:01:45;;;;;;;19.20;14.87;;;;;;;-1.98;79.47;103275.38;5019420;28;20202;-74
2023/02/08 03:04:18;;;;;;;16.43;13.87;;;;;;;-1.98;79.41;103271.88;5024889;28;20218;-74
2023/02/08 03:06:59;;;;;;;15.83;14.10;;;;;;;-1.95;79.31;103275.59;5029728;28;20201;-74
2023/02/08 03:09:39;;;;;;;17.97;13.83;;;;;;;-2.01;78.92;103287.91;5020408;28;20280;-74
2023/02/08 03:12:20;;;;;;;15.20;12.97;;;;;;;-2.06;79.30;103279.88;5023096;28;20198;-74
2023/02/08 03:14:55;;;;;;;13.93;12.43;;;;;;;-2.12;79.50;103281.97;5022693;28;20202;-74
2023/02/08 03:17:43;;;;;;;16.67;12.63;;;;;;;-2.22;79.09;103267.53;5021674;28;20209;-74
2023/02/08 03:20:17;;;;;;;20.00;12.03;;;;;;;-2.21;79.32;103281.22;5020927;28;20227;-74
2023/02/08 03:22:51;;;;;;;15.00;11.50;;;;;;;-2.22;79.45;103280.34;5021546;28;20202;-74
2023/02/08 03:25:23;;;;;;;15.03;11.57;;;;;;;-2.18;79.67;103280.56;5021752;28;20281;-74
2023/02/08 03:27:59;;;;;;;14.87;12.37;;;;;;;-2.17;79.73;103267.91;5021187;28;20207;-74
2023/02/08 03:30:33;;;;;;;14.20;12.57;;;;;;;-2.16;79.47;103263.66;5021083;28;20255;-74
2023/02/08 03:33:06;;;;;;;13.53;11.70;;;;;;;-2.23;79.64;103259.75;5021782;28;20664;-74
2023/02/08 03:35:40;;;;;;;14.23;12.33;;;;;;;-2.23;79.44;103254.63;5027973;28;20621;-74
2023/02/08 03:38:10;;;;;;;14.13;12.17;;;;;;;-2.31;80.18;103251.47;5024551;28;20598;-74
2023/02/08 03:40:39;;;;;;;14.63;12.93;;;;;;;-2.30;79.93;103243.03;5020906;28;20202;-74
2023/02/08 03:43:11;;;;;;;14.30;12.80;;;;;;;-2.30;79.88;103230.25;5020957;28;20723;-74
2023/02/08 03:45:42;;;;;;;13.40;12.00;;;;;;;-2.36;80.40;103223.72;5019666;28;20562;-74
2023/02/08 03:48:13;;;;;;;13.80;12.37;;;;;;;-2.35;80.40;103207.63;5009983;28;20300;-74
2023/02/08 03:50:46;;;;;;;15.63;12.30;;;;;;;-2.33;80.36;103199.28;5010882;28;20203;-74
2023/02/08 03:53:14;;;;;;;17.73;12.80;;;;;;;-2.41;80.92;103195.25;5011512;28;20210;-74
2023/02/08 03:55:45;;;;;;;15.13;12.27;;;;;;;-2.43;80.87;103179.78;5011424;28;20752;-74
2023/02/08 03:58:18;;;;;;;16.17;13.07;;;;;;;-2.41;80.99;103178.22;5011547;28;20254;-74
2023/02/08 04:00:51;;;;;;;14.27;11.77;;;;;;;-2.44;81.16;103164.28;5011838;28;20206;-74
2023/02/08 04:03:22;;;;;;;15.33;12.33;;;;;;;-2.47;81.49;103164.06;5012345;28;20264;-74
2023/02/08 04:05:50;;;;;;;14.03;12.37;;;;;;;-2.52;81.21;103156.03;5042655;28;20205;-74
2023/02/08 04:08:17;;;;;;;16.37;12.93;;;;;;;-2.58;81.60;103147.00;5051253;28;20271;-74
2023/02/08 04:10:43;;;;;;;13.77;12.37;;;;;;;-2.53;81.62;103138.91;5051080;28;20209;-74
2023/02/08 04:13:10;;;;;;;15.20;13.10;;;;;;;-2.47;81.60;103131.72;5051478;28;20733;-74
2023/02/08 04:15:36;;;;;;;14.40;12.40;;;;;;;-2.49;80.34;103151.16;5051519;28;20209;-74
2023/02/08 04:18:03;;;;;;;13.80;11.63;;;;;;;-2.55;77.28;103194.16;5050898;28;20251;-74
2023/02/08 04:20:29;;;;;;;15.07;12.07;;;;;;;-2.50;75.58;103268.66;5044326;28;20691;-74
2023/02/08 04:22:57;;;;;;;14.50;11.87;;;;;;;-2.41;76.12;103303.56;5031692;28;20252;-74
2023/02/08 04:25:23;;;;;;;16.70;11.67;;;;;;;-2.32;75.98;103317.84;5031436;28;20202;-74
2023/02/08 04:27:50;;;;;;;13.90;11.50;;;;;;;-2.41;75.15;103344.47;5030303;28;20238;-74
2023/02/08 04:30:16;;;;;;;14.70;11.47;;;;;;;-2.36;75.50;103356.75;5031151;28;20676;-73
2023/02/08 04:32:43;;;;;;;14.93;11.60;;;;;;;-2.43;76.66;103363.91;5031138;28;20248;-74
2023/02/08 04:35:09;;;;;;;12.60;10.97;;;;;;;-2.48;77.04;103361.75;5037791;28;20211;-74
2023/02/08 04:37:36;;;;;;;13.17;10.73;;;;;;;-2.47;77.20;103338.88;5050592;28;20209;-74
2023/02/08 04:40:04;;;;;;;12.97;11.03;;;;;;;-2.44;77.05;103343.31;5050905;28;20225;-75
2023/02/08 04:42:30;;;;;;;11.40;9.60;;;;;;;-2.36;77.32;103346.50;5050715;28;20275;-74
2023/02/08 04:44:57;;;;;;;11.67;10.00;;;;;;;-2.37;76.94;103348.19;5051247;28;20209;-74
2023/02/08 04:47:23;;;;;;;16.93;12.37;;;;;;;-2.66;74.40;103367.13;5050872;28;20633;-74
2023/02/08 04:49:49;;;;;;;15.83;13.23;;;;;;;-2.98;74.76;103419.81;5032232;28;20292;-74
2023/02/08 04:52:16;;;;;;;17.67;14.13;;;;;;;-3.22;77.06;103424.63;5029938;28;20206;-75
2023/02/08 04:54:42;;;;;;;16.30;13.63;;;;;;;-3.14;77.63;103400.63;5029998;28;20210;-74
2023/02/08 04:57:12;;;;;;;16.17;14.47;;;;;;;-3.25;79.52;103375.81;5029957;28;20214;-74
2023/02/08 04:59:39;;;;;;;16.60;14.50;;;;;;;-3.13;80.45;103313.03;5030064;28;20605;-74
2023/02/08 05:02:05;;;;;;;19.90;15.20;;;;;;;-2.91;80.50;103284.13;5029962;28;20256;-74
2023/02/08 05:04:32;;;;;;;17.67;15.13;;;;;;;-3.04;80.29;103266.88;5031596;28;20590;-74
2023/02/08 05:06:59;;;;;;;26.80;16.47;;;;;;;-3.06;80.59;103258.19;5048975;28;20197;-74
2023/02/08 05:09:25;;;;;;;23.33;16.20;;;;;;;-3.20;80.99;103244.28;5049899;28;20241;-74
2023/02/08 05:11:52;;;;;;;20.77;15.07;;;;;;;-3.16;81.34;103227.56;5049774;28;20285;-74
2023/02/08 05:14:19;;;;;;;17.10;14.40;;;;;;;-3.20;81.81;103211.09;5049552;28;20622;-75
2023/02/08 05:16:46;;;;;;;20.83;16.37;;;;;;;-3.16;81.40;103197.78;5040633;28;20214;-74
2023/02/08 05:19:12;;;;;;;23.00;16.57;;;;;;;-3.04;81.43;103188.56;5029700;28;20569;-75
2023/02/08 05:21:39;;;;;;;19.67;15.00;;;;;;;-3.05;80.54;103196.13;5029919;28;20629;-73
2023/02/08 05:24:06;;;;;;;17.03;15.10;;;;;;;-2.89;80.77;103205.94;5029443;28;20248;-75
2023/02/08 05:26:33;;;;;;;16.57;14.27;;;;;;;-2.76;80.46;103212.91;5029741;28;20213;-74
2023/02/08 05:28:59;;;;;;;21.93;14.77;;;;;;;-2.64;80.16;103216.44;5029133;28;20281;-75
2023/02/08 05:31:27;;;;;;;18.37;14.90;;;;;;;-2.75;79.25;103230.91;5029353;28;20672;-75
2023/02/08 05:33:53;;;;;;;18.67;15.13;;;;;;;-3.00;79.93;103251.03;5029156;28;20214;-74
2023/02/08 05:36:22;;;;;;;19.97;14.57;;;;;;;-2.97;80.99;103241.06;5039738;28;20263;-74
2023/02/08 05:38:48;;;;;;;23.30;16.03;;;;;;;-2.83;80.88;103226.88;5050386;28;20229;-74
2023/02/08 05:41:15;;;;;;;22.50;15.53;;;;;;;-2.81;81.03;103212.53;5052348;28;20209;-74
2023/02/08 05:43:42;;;;;;;19.73;14.97;;;;;;;-2.74;80.71;103213.91;5053095;28;20205;-74
2023/02/08 05:46:08;;;;;;;17.50;15.20;;;;;;;-2.69;80.91;103208.41;5052335;28;20210;-74
2023/02/08 05:48:36;;;;;;;16.90;15.03;;;;;;;-2.65;81.16;103199.31;5018605;28;1008167;-74
2023/02/08 05:51:02;;;;;;;17.17;15.13;;;;;;;-2.70;81.06;103198.03;5053195;28;20683;-74
2023/02/08 05:53:29;;;;;;;20.43;15.27;;;;;;;-2.72;81.11;103194.47;5053683;28;20209;-74
2023/02/08 05:55:57;;;;;;;17.73;15.67;;;;;;;-2.65;81.22;103202.75;5053328;28;20697;-74
2023/02/08 05:58:23;;;;;;;21.00;15.77;;;;;;;-2.56;80.86;103201.69;5053765;28;20255;-74
2023/02/08 06:00:50;;;;;;;25.77;15.50;;;;;;;-2.65;81.01;103205.31;5052963;28;20210;-74
2023/02/08 06:03:16;;;;;;;18.53;14.57;;;;;;;-2.78;80.98;103209.31;5053599;28;20208;-74
2023/02/08 06:05:45;;;;;;;22.33;15.77;;;;;;;-2.88;81.51;103212.81;5049541;28;20198;-74
2023/02/08 06:08:11;;;;;;;18.87;14.13;;;;;;;-2.83;81.78;103209.84;5052321;28;20225;-74
2023/02/08 06:10:37;;;;;;;15.47;12.57;;;;;;;-2.80;81.22;103199.84;5053509;28;20263;-74
2023/02/08 06:13:04;;;;;;;16.43;12.37;;;;;;;-2.84;80.70;103212.28;5041830;28;20206;-74
2023/02/08 06:15:31;;;;;;;15.27;11.70;;;;;;;-2.92;80.64;103223.56;5033978;28;20257;-73
2023/02/08 06:17:57;;;;;;;12.77;11.13;;;;;;;-2.92;80.57;103224.44;5033451;28;20268;-73
2023/02/08 06:20:24;;;;;;;12.80;11.47;;;;;;;-2.89;80.46;103231.47;5033622;28;20252;-73
2023/02/08 06:22:52;;;;;;;13.03;11.03;;;;;;;-3.01;80.00;103245.03;5032942;28;20206;-74
2023/02/08 06:25:18;;;;;;;13.40;11.30;;;;;;;-2.95;79.87;103253.94;5033056;28;20750;-73
2023/02/08 06:27:44;;;;;;;14.77;11.00;;;;;;;-3.00;79.82;103251.91;5033204;28;20202;-74
2023/02/08 06:30:13;;;;;;;12.07;10.87;;;;;;;-3.07;79.95;103259.88;5032255;28;20636;-74
2023/02/08 06:32:39;;;;;;;15.87;10.80;;;;;;;-3.20;80.05;103267.28;5032621;28;20260;-74
2023/02/08 06:35:06;;;;;;;12.53;10.20;;;;;;;-3.14;80.04;103266.91;5032817;28;20210;-74
2023/02/08 06:37:33;;;;;;;14.30;10.57;;;;;;;-3.13;80.00;103263.56;5050878;28;20209;-74
2023/02/08 06:40:00;;;;;;;12.80;10.00;;;;;;;-3.09;80.00;103260.50;5050372;28;20256;-73
2023/02/08 06:42:27;;;;;;;13.83;11.27;;;;;;;-3.05;79.70;103260.88;5032563;28;20263;-73
2023/02/08 06:44:54;;;;;;;12.13;10.17;;;;;;;-3.13;79.87;103259.38;5032872;28;20206;-74
2023/02/08 06:47:21;;;;;;;13.33;10.87;;;;;;;-3.17;79.90;103257.34;5032807;28;20218;-74
2023/02/08 06:49:47;;;;;;;11.13;10.00;;;;;;;-3.21;80.86;103245.03;5031840;28;20226;-74
2023/02/08 06:52:13;;;;;;;15.10;10.97;;;;;;;-3.21;80.84;103240.84;5032272;28;20612;-74
2023/02/08 06:54:40;;;;;;;11.13;9.20;;;;;;;-3.23;81.54;103231.25;5032599;28;20214;-74
2023/02/08 06:57:08;;;;;;;12.90;10.97;;;;;;;-3.18;81.02;103231.66;5032803;28;20202;-74
2023/02/08 06:59:34;;;;;;;13.53;10.60;;;;;;;-3.11;80.58;103231.38;5032869;28;20222;-74
2023/02/08 07:02:01;;;;;;;13.20;10.97;;;;;;;-3.12;79.66;103243.25;5032501;28;20624;-74
2023/02/08 07:04:27;;;;;;;13.63;10.67;;;;;;;-3.09;79.39;103247.72;5031236;28;20206;-74
2023/02/08 07:06:53;;;;;;;14.87;11.30;;;;;;;-3.17;78.84;103267.56;5025978;28;20198;-74
2023/02/08 07:09:20;;;;;;;12.60;11.23;;;;;;;-3.25;78.07;103277.13;5024445;28;20233;-74
2023/02/08 07:11:46;;;;;;;17.90;11.97;;;;;;;-3.13;76.92;103313.03;5017945;28;20613;-74
2023/02/08 07:14:15;;;;;;;14.67;11.77;;;;;;;-3.01;77.73;103326.81;5013176;28;20677;-74
2023/02/08 07:16:42;;;;;;;14.87;11.83;;;;;;;-2.89;77.12;103342.25;5016538;28;20664;-74
2023/02/08 07:19:08;;;;;;;17.23;12.37;;;;;;;-2.89;76.24;103361.81;5026026;28;20256;-74
2023/02/08 07:21:35;;;;;;;14.40;11.77;;;;;;;-2.88;77.68;103381.47;5022153;28;20199;-73
2023/02/08 07:24:01;;;;;;;13.03;11.63;;;;;;;-2.97;78.06;103368.84;5023361;28;20245;-73
2023/02/08 07:26:27;;;;;;;15.60;12.37;;;;;;;-2.98;78.78;103349.16;5021481;28;20202;-73
2023/02/08 07:28:54;;;;;;;15.97;12.70;;;;;;;-2.97;79.09;103332.16;5032180;28;20261;-73
2023/02/08 07:31:22;;;;;;;18.10;12.10;;;;;;;-2.91;78.84;103331.03;5023253;28;20198;-73
2023/02/08 07:33:48;;;;;;;15.73;12.60;;;;;;;-3.00;79.49;103336.25;5022088;28;20257;-73
2023/02/08 07:36:15;;;;;;;15.87;12.07;;;;;;;-2.95;79.58;103311.09;5030827;28;20304;-73
2023/02/08 07:38:41;;;;;;;12.80;10.93;;;;;;;-2.94;79.70;103297.53;5039189;28;20234;-73
2023/02/08 07:41:10;;;;;;;16.90;12.37;;;;;;;-2.92;79.63;103296.00;5023204;28;20620;-73
2023/02/08 07:43:37;;;;;;;12.47;10.97;;;;;;;-2.85;79.78;103282.97;5032402;28;20253;-73
2023/02/08 07:46:07;;;;;;;14.57;11.03;;;;;;;-2.92;78.14;103288.31;5032251;28;20213;-73
2023/02/08 07:48:35;;;;;;;12.93;10.87;;;;;;;-2.81;78.30;103305.44;5031953;28;20239;-73
2023/02/08 07:51:02;;;;;;;12.47;10.83;;;;;;;-2.72;77.99;103310.41;5032095;28;20210;-73
2023/02/08 07:53:28;;;;;;;12.53;11.23;;;;;;;-2.70;77.55;103313.97;5032492;28;20214;-73
2023/02/08 07:55:55;;;;;;;16.30;11.97;;;;;;;-2.68;76.46;103329.44;5032470;28;20213;-74
2023/02/08 07:58:21;;;;;;;13.77;11.10;;;;;;;-2.62;76.54;103346.19;5032301;28;20226;-73
2023/02/08 08:00:48;;;;;;;15.13;12.33;;;;;;;-2.58;76.16;103356.66;5031749;28;20210;-73
2023/02/08 08:03:14;;;;;;;16.17;12.73;;;;;;;-2.52;76.37;103369.94;5032262;28;20236;-73
2023/02/08 08:05:42;;;;;;;15.80;12.60;;;;;;;-2.49;76.36;103372.78;5034290;28;20556;-72
2023/02/08 08:08:10;;;;;;;14.43;12.93;;;;;;;-2.41;76.43;103377.72;5041740;28;20215;-73
2023/02/08 08:10:37;;;;;;;19.40;14.00;;;;;;;-2.43;76.95;103379.25;5021268;28;20222;-73
2023/02/08 08:13:04;;;;;;;18.27;14.70;;;;;;;-2.33;76.93;103372.34;5022502;28;20264;-73
2023/02/08 08:15:31;;;;;;;20.40;15.23;;;;;;;-2.27;76.94;103371.16;5022290;28;20194;-72
2023/02/08 08:17:57;;;;;;;22.57;15.83;;;;;;;-2.18;77.24;103365.00;5017508;28;20229;-73
2023/02/08 08:20:24;;;;;;;21.73;15.97;;;;;;;-2.12;77.63;103357.81;5011854;28;20680;-73
2023/02/08 08:22:52;;;;;;;19.80;15.43;;;;;;;-2.13;78.39;103353.47;5012005;28;20206;-73
2023/02/08 08:25:19;;;;;;;22.03;15.33;;;;;;;-2.09;78.06;103341.03;5012213;28;20236;-73
2023/02/08 08:27:45;;;;;;;27.03;17.07;;;;;;;-2.15;78.37;103332.88;5011836;28;20203;-72
2023/02/08 08:30:14;;;;;;;17.93;15.10;;;;;;;-2.06;78.28;103325.03;5011599;28;20280;-72
2023/02/08 08:32:41;;;;;;;23.10;17.73;;;;;;;-2.01;78.44;103327.19;5011491;28;20206;-74
2023/02/08 08:35:08;;;;;;;20.33;15.77;;;;;;;-2.00;78.27;103322.97;5017561;28;20199;-73
2023/02/08 08:37:35;;;;;;;20.90;17.03;;;;;;;-1.96;78.17;103317.34;5049538;28;20217;-74
2023/02/08 08:40:05;;;;;;;21.80;15.80;;;;;;;-1.87;78.39;103312.03;5051340;28;20244;-74
2023/02/08 08:42:32;;;;;;;21.37;16.20;;;;;;;-1.88;78.64;103308.59;5050946;28;20205;-74
2023/02/08 08:44:58;;;;;;;21.43;16.37;;;;;;;-1.80;78.56;103301.50;5051424;28;20663;-73
2023/02/08 08:47:25;;;;;;;23.67;16.13;;;;;;;-1.85;78.56;103311.34;5050916;28;20741;-73
2023/02/08 08:49:51;;;;;;;27.03;15.87;;;;;;;-1.71;81.02;103297.06;5050434;28;20229;-72
2023/02/08 08:52:19;;;;;;;25.93;17.53;;;;;;;-1.51;83.56;103208.06;5050504;28;20209;-71
2023/02/08 08:54:45;;;;;;;23.63;17.13;;;;;;;-1.57;81.86;103169.19;5051341;28;20209;-72
2023/02/08 08:57:13;;;;;;;20.20;16.33;;;;;;;-1.33;84.81;103141.94;5051508;28;20209;-72
2023/02/08 08:59:39;;;;;;;19.80;15.50;;;;;;;-1.24;85.59;103071.75;5049735;28;20280;-72
2023/02/08 09:02:06;;;;;;;20.23;16.00;;;;;;;-1.33;83.43;103083.88;5050971;28;20678;-72
2023/02/08 09:04:33;;;;;;;19.00;16.50;;;;;;;-1.36;82.32;103106.75;5051296;28;20262;-73
2023/02/08 09:07:00;;;;;;;24.75;21.02;;;;;;;-1.28;82.45;103120.13;5047105;28;20431;-72
2023/02/08 09:09:26;;;;;;;23.53;17.63;;;;;;;-1.17;84.24;103100.38;5025596;28;20255;-72
2023/02/08 09:11:53;;;;;;;22.40;17.87;;;;;;;-1.01;85.98;103046.88;5021546;28;20194;-73
2023/02/08 09:14:20;;;;;;;22.83;16.03;;;;;;;-0.82;86.95;103008.91;5023432;28;20203;-72
2023/02/08 09:16:48;;;;;;;23.00;16.93;;;;;;;-0.61;88.55;102960.75;5021284;28;20204;-72
2023/02/08 09:19:14;;;;;;;23.53;17.27;;;;;;;-0.46;89.17;102919.84;5015183;28;20234;-72
2023/02/08 09:21:41;;;;;;;25.77;18.33;;;;;;;-0.58;85.24;102952.38;5015014;28;20203;-72
2023/02/08 09:24:08;;;;;;;26.70;17.80;;;;;;;-0.65;83.80;103019.44;5015157;28;20294;-72
2023/02/08 09:26:34;;;;;;;24.00;17.10;;;;;;;-0.49;86.83;103016.25;5015423;28;20210;-72
2023/02/08 09:29:01;;;;;;;19.03;16.93;;;;;;;-0.22;89.22;102955.59;5015269;28;20235;-72
2023/02/08 09:31:32;;;;;;;18.63;16.63;;;;;;;-0.04;89.29;102902.91;5014979;28;20322;-72
2023/02/08 09:34:00;;;;;;;25.93;18.20;;;;;;;0.05;88.04;102910.31;5015026;28;20212;-72
2023/02/08 09:36:31;;;;;;;29.53;19.37;;;;;;;0.14;85.61;102951.06;5036636;28;20252;-72
2023/02/08 09:39:00;;;;;;;23.90;18.67;;;;;;;0.43;85.88;102965.78;5054570;28;20229;-72
2023/02/08 09:41:42;;;;;;;26.73;19.30;;;;;;;0.54;83.58;103005.91;5054634;28;20209;-72
2023/02/08 09:44:17;;;;;;;29.57;21.30;;;;;;;0.58;83.93;103046.44;5054695;28;20300;-72
2023/02/08 09:46:52;;;;;;;26.37;19.47;;;;;;;0.72;84.13;103044.75;5054679;28;20208;-72
2023/02/08 09:49:24;;;;;;;25.90;17.90;;;;;;;0.78;83.25;103072.53;5054449;28;20282;-72
2023/02/08 09:51:56;;;;;;;21.07;17.43;;;;;;;0.92;81.65;103104.25;5054469;28;20217;-72
2023/02/08 09:54:28;;;;;;;19.90;17.27;;;;;;;0.97;80.28;103142.34;5054911;28;20260;-72
2023/02/08 09:56:57;;;;;;;22.53;16.13;;;;;;;1.07;79.59;103168.63;5036833;28;20204;-72
2023/02/08 09:59:26;;;;;;;23.33;15.57;;;;;;;1.10;78.91;103218.59;5024227;28;20223;-71
2023/02/08 10:01:59;;;;;;;29.63;20.47;;;;;;;1.17;77.40;103267.06;5024793;28;20306;-72
2023/02/08 10:04:33;;;;;;;17.90;15.97;;;;;;;1.21;76.34;103303.28;5024271;28;20210;-72
2023/02/08 10:07:00;;;;;;;20.53;15.23;;;;;;;1.26;75.86;103338.81;5030723;28;20615;-72
2023/02/08 10:09:27;;;;;;;26.07;15.77;;;;;;;1.28;75.47;103373.25;5026320;28;20268;-74
2023/02/08 10:12:05;;;;;;;18.33;15.07;;;;;;;1.18;74.23;103404.31;5024677;28;20237;-72
2023/02/08 10:14:42;;;;;;;14.87;13.33;;;;;;;1.06;72.32;103452.38;5024710;28;20548;-72
2023/02/08 10:17:35;;;;;;;17.83;15.03;;;;;;;0.91;71.24;103498.47;5024412;28;20219;-72
2023/02/08 10:20:08;;;;;;;18.97;14.20;;;;;;;0.85;72.24;103534.03;5023160;28;20214;-72
2023/02/08 10:22:45;;;;;;;18.23;13.73;;;;;;;0.76;72.55;103565.16;5022096;28;20257;-72
2023/02/08 10:25:23;;;;;;;18.10;14.37;;;;;;;0.78;72.99;103571.28;5023371;28;20202;-72
2023/02/08 10:28:10;;;;;;;20.60;15.47;;;;;;;0.92;75.06;103538.84;5024196;28;20627;-72
2023/02/08 10:30:48;;;;;;;16.77;13.97;;;;;;;1.15;75.05;103486.41;5024208;28;20218;-72
2023/02/08 10:33:21;;;;;;;17.30;14.17;;;;;;;1.26;73.22;103480.34;5024586;28;20255;-72
2023/02/08 10:35:50;;;;;;;17.00;14.40;;;;;;;1.36;74.16;103507.59;5023980;28;20210;-72
2023/02/08 10:38:24;;;;;;;16.00;14.30;;;;;;;1.38;71.77;103506.00;5022296;28;20226;-72
2023/02/08 10:40:55;;;;;;;17.93;13.63;;;;;;;1.42;72.28;103538.91;5022401;28;20194;-72
2023/02/08 10:43:28;;;;;;;17.50;13.40;;;;;;;1.63;73.12;103536.03;5024000;28;20195;-72
2023/02/08 10:46:03;;;;;;;14.90;12.83;;;;;;;1.70;72.98;103523.63;5024133;28;20211;-72
2023/02/08 10:48:43;;;;;;;16.63;13.10;;;;;;;1.72;73.46;103518.59;5028151;28;20587;-72
2023/02/08 10:51:14;;;;;;;14.60;13.20;;;;;;;1.78;73.45;103501.88;5043151;28;20233;-72
2023/02/08 10:53:41;;;;;;;17.43;13.47;;;;;;;1.76;72.15;103507.69;5054004;28;20213;-72
2023/02/08 10:56:27;;;;;;;19.10;14.87;;;;;;;1.64;70.03;103548.09;5053562;28;20260;-72
2023/02/08 10:58:54;;;;;;;17.27;12.97;;;;;;;1.53;69.74;103583.41;5053106;28;20717;-72
2023/02/08 11:01:22;;;;;;;15.80;14.20;;;;;;;1.48;70.40;103613.06;5053102;28;20206;-72
2023/02/08 11:04:04;;;;;;;19.50;16.03;;;;;;;1.42;69.92;103612.66;5039449;28;20210;-72
2023/02/08 11:06:30;;;;;;;17.00;13.60;;;;;;;1.37;69.94;103613.22;5032929;28;20202;-72
2023/02/08 11:08:58;;;;;;;17.70;14.90;;;;;;;1.30;70.28;103613.56;5033238;28;20301;-73
2023/02/08 11:11:26;;;;;;;33.70;18.23;;;;;;;1.27;70.35;103613.38;5032957;28;20227;-73
2023/02/08 11:13:53;;;;;;;20.13;18.00;;;;;;;1.32;71.63;103611.09;5033275;28;20218;-73
2023/02/08 11:16:22;;;;;;;17.73;14.77;;;;;;;1.45;72.80;103580.31;5033300;28;20207;-73
2023/02/08 11:18:51;;;;;;;16.10;13.33;;;;;;;1.50;71.67;103522.28;5032919;28;20284;-72
2023/02/08 11:21:25;;;;;;;19.40;13.97;;;;;;;1.69;73.49;103509.00;5032505;28;20211;-72